sensor_id;sensor_type;location;lat;lon;timestamp;temperature;humidity
52899;DHT22;38763;53.096;6.062;2022-12-07T00:00:55;2.90;99.90
52899;DHT22;38763;53.096;6.062;2022-12-07T00:03:29;2.90;99.90
52899;DHT22;38763;53.096;6.062;2022-12-07T00:05:57;3.00;99.90
52899;DHT22;38763;53.096;6.062;2022-12-07T00:08:23;3.00;99.90
52899;DHT22;38763;53.096;6.062;2022-12-07T00:10:49;3.20;99.90
52899;DHT22;38763;53.096;6.062;2022-12-07T00:13:14;3.30;99.90
52899;DHT22;38763;53.096;6.062;2022-12-07T00:15:40;3.30;99.90
52899;DHT22;38763;53.096;6.062;2022-12-07T00:18:05;3.50;99.90
52899;DHT22;38763;53.096;6.062;2022-12-07T00:20:31;3.50;99.90
52899;DHT22;38763;53.096;6.062;2022-12-07T00:22:58;3.50;99.90
52899;DHT22;38763;53.096;6.062;2022-12-07T00:25:24;3.50;99.90
52899;DHT22;38763;53.096;6.062;2022-12-07T00:27:49;3.30;99.90
52899;DHT22;38763;53.096;6.062;2022-12-07T00:30:15;3.20;99.90
52899;DHT22;38763;53.096;6.062;2022-12-07T00:32:41;3.40;99.90
52899;DHT22;38763;53.096;6.062;2022-12-07T00:35:06;3.20;99.90
52899;DHT22;38763;53.096;6.062;2022-12-07T00:37:32;3.20;99.90
52899;DHT22;38763;53.096;6.062;2022-12-07T00:39:58;3.10;99.90
52899;DHT22;38763;53.096;6.062;2022-12-07T00:42:23;2.90;99.90
52899;DHT22;38763;53.096;6.062;2022-12-07T00:44:49;3.00;99.90
52899;DHT22;38763;53.096;6.062;2022-12-07T00:47:14;2.80;99.90
52899;DHT22;38763;53.096;6.062;2022-12-07T00:49:40;3.10;99.90
52899;DHT22;38763;53.096;6.062;2022-12-07T00:52:05;3.10;99.90
52899;DHT22;38763;53.096;6.062;2022-12-07T00:54:31;3.20;99.90
52899;DHT22;38763;53.096;6.062;2022-12-07T00:56:57;3.20;99.90
52899;DHT22;38763;53.096;6.062;2022-12-07T00:59:22;3.40;99.90
52899;DHT22;38763;53.096;6.062;2022-12-07T01:01:48;3.40;99.90
52899;DHT22;38763;53.096;6.062;2022-12-07T01:04:14;3.30;99.90
52899;DHT22;38763;53.096;6.062;2022-12-07T01:06:39;3.40;99.90
52899;DHT22;38763;53.096;6.062;2022-12-07T01:09:05;3.50;99.90
52899;DHT22;38763;53.096;6.062;2022-12-07T01:11:31;3.30;99.90
52899;DHT22;38763;53.096;6.062;2022-12-07T01:13:58;3.30;99.90
52899;DHT22;38763;53.096;6.062;2022-12-07T01:16:26;3.40;99.90
52899;DHT22;38763;53.096;6.062;2022-12-07T01:18:53;3.40;99.90
52899;DHT22;38763;53.096;6.062;2022-12-07T01:21:25;3.30;99.90
52899;DHT22;38763;53.096;6.062;2022-12-07T01:23:51;3.20;99.90
52899;DHT22;38763;53.096;6.062;2022-12-07T01:26:20;3.40;99.90
52899;DHT22;38763;53.096;6.062;2022-12-07T01:28:47;3.30;99.90
52899;DHT22;38763;53.096;6.062;2022-12-07T01:31:18;3.10;99.90
52899;DHT22;38763;53.096;6.062;2022-12-07T01:33:46;3.00;99.90
52899;DHT22;38763;53.096;6.062;2022-12-07T01:36:22;3.00;99.90
52899;DHT22;38763;53.096;6.062;2022-12-07T01:38:50;3.00;99.90
52899;DHT22;38763;53.096;6.062;2022-12-07T01:41:18;3.00;99.90
52899;DHT22;38763;53.096;6.062;2022-12-07T01:46:34;3.10;99.90
52899;DHT22;38763;53.096;6.062;2022-12-07T01:49:00;3.30;99.90
52899;DHT22;38763;53.096;6.062;2022-12-07T01:51:27;3.40;99.90
52899;DHT22;38763;53.096;6.062;2022-12-07T01:53:53;3.50;99.90
52899;DHT22;38763;53.096;6.062;2022-12-07T01:56:22;3.40;99.90
52899;DHT22;38763;53.096;6.062;2022-12-07T01:58:49;3.40;99.90
52899;DHT22;38763;53.096;6.062;2022-12-07T02:01:15;3.40;99.90
52899;DHT22;38763;53.096;6.062;2022-12-07T02:03:43;3.40;99.90
52899;DHT22;38763;53.096;6.062;2022-12-07T02:06:12;3.40;99.90
52899;DHT22;38763;53.096;6.062;2022-12-07T02:08:41;3.60;99.90
52899;DHT22;38763;53.096;6.062;2022-12-07T02:11:08;3.50;99.90
52899;DHT22;38763;53.096;6.062;2022-12-07T02:13:37;3.50;99.90
52899;DHT22;38763;53.096;6.062;2022-12-07T02:21:50;3.50;99.90
52899;DHT22;38763;53.096;6.062;2022-12-07T02:24:52;3.50;99.90
52899;DHT22;38763;53.096;6.062;2022-12-07T02:30:11;3.30;99.90
52899;DHT22;38763;53.096;6.062;2022-12-07T02:32:44;3.30;99.90
52899;DHT22;38763;53.096;6.062;2022-12-07T02:35:17;3.30;99.90
52899;DHT22;38763;53.096;6.062;2022-12-07T02:43:06;3.10;99.90
52899;DHT22;38763;53.096;6.062;2022-12-07T02:45:35;3.20;99.90
52899;DHT22;38763;53.096;6.062;2022-12-07T02:48:02;3.10;99.90
52899;DHT22;38763;53.096;6.062;2022-12-07T02:50:29;3.20;99.90
52899;DHT22;38763;53.096;6.062;2022-12-07T02:52:55;3.10;99.90
52899;DHT22;38763;53.096;6.062;2022-12-07T02:55:26;3.30;99.90
52899;DHT22;38763;53.096;6.062;2022-12-07T02:58:21;3.30;99.90
52899;DHT22;38763;53.096;6.062;2022-12-07T03:04:08;3.20;99.90
52899;DHT22;38763;53.096;6.062;2022-12-07T03:06:43;3.20;99.90
52899;DHT22;38763;53.096;6.062;2022-12-07T03:09:19;3.20;99.90
52899;DHT22;38763;53.096;6.062;2022-12-07T03:11:49;3.10;99.90
52899;DHT22;38763;53.096;6.062;2022-12-07T03:14:23;3.10;99.90
52899;DHT22;38763;53.096;6.062;2022-12-07T03:16:57;3.20;99.90
52899;DHT22;38763;53.096;6.062;2022-12-07T03:19:27;3.00;99.90
52899;DHT22;38763;53.096;6.062;2022-12-07T03:22:01;3.00;99.90
52899;DHT22;38763;53.096;6.062;2022-12-07T03:24:32;2.90;99.90
52899;DHT22;38763;53.096;6.062;2022-12-07T03:27:09;3.00;99.90
52899;DHT22;38763;53.096;6.062;2022-12-07T03:30:05;3.00;99.90
52899;DHT22;38763;53.096;6.062;2022-12-07T03:32:36;3.00;99.90
52899;DHT22;38763;53.096;6.062;2022-12-07T03:35:15;3.00;99.90
52899;DHT22;38763;53.096;6.062;2022-12-07T03:37:59;3.00;99.90
52899;DHT22;38763;53.096;6.062;2022-12-07T03:40:30;2.90;99.90
52899;DHT22;38763;53.096;6.062;2022-12-07T03:42:59;3.00;99.90
52899;DHT22;38763;53.096;6.062;2022-12-07T03:45:42;2.80;99.90
52899;DHT22;38763;53.096;6.062;2022-12-07T03:48:22;2.80;99.90
52899;DHT22;38763;53.096;6.062;2022-12-07T03:51:11;2.90;99.90
52899;DHT22;38763;53.096;6.062;2022-12-07T03:53:48;2.80;99.90
52899;DHT22;38763;53.096;6.062;2022-12-07T03:56:17;2.90;99.90
52899;DHT22;38763;53.096;6.062;2022-12-07T03:58:43;2.90;99.90
52899;DHT22;38763;53.096;6.062;2022-12-07T04:01:10;3.10;99.90
52899;DHT22;38763;53.096;6.062;2022-12-07T04:03:35;3.30;99.90
52899;DHT22;38763;53.096;6.062;2022-12-07T04:06:01;3.40;99.90
52899;DHT22;38763;53.096;6.062;2022-12-07T04:08:27;3.60;99.90
52899;DHT22;38763;53.096;6.062;2022-12-07T04:10:53;3.50;99.90
52899;DHT22;38763;53.096;6.062;2022-12-07T04:13:18;3.60;99.90
52899;DHT22;38763;53.096;6.062;2022-12-07T04:15:44;3.50;99.90
52899;DHT22;38763;53.096;6.062;2022-12-07T04:18:09;3.40;99.90
52899;DHT22;38763;53.096;6.062;2022-12-07T04:20:35;3.50;99.90
52899;DHT22;38763;53.096;6.062;2022-12-07T04:23:01;3.50;99.90
52899;DHT22;38763;53.096;6.062;2022-12-07T04:25:26;3.50;99.90
52899;DHT22;38763;53.096;6.062;2022-12-07T04:27:52;3.40;99.90
52899;DHT22;38763;53.096;6.062;2022-12-07T04:30:18;3.30;99.90
52899;DHT22;38763;53.096;6.062;2022-12-07T04:32:44;3.40;99.90
52899;DHT22;38763;53.096;6.062;2022-12-07T04:35:09;3.30;99.90
52899;DHT22;38763;53.096;6.062;2022-12-07T04:37:35;3.20;99.90
52899;DHT22;38763;53.096;6.062;2022-12-07T04:40:01;3.20;99.90
52899;DHT22;38763;53.096;6.062;2022-12-07T04:42:26;3.00;99.90
52899;DHT22;38763;53.096;6.062;2022-12-07T04:44:52;2.90;99.90
52899;DHT22;38763;53.096;6.062;2022-12-07T04:47:17;2.80;99.90
52899;DHT22;38763;53.096;6.062;2022-12-07T04:49:43;2.80;99.90
52899;DHT22;38763;53.096;6.062;2022-12-07T04:52:09;2.70;99.90
52899;DHT22;38763;53.096;6.062;2022-12-07T04:54:34;2.70;99.90
52899;DHT22;38763;53.096;6.062;2022-12-07T04:57:00;2.50;99.90
52899;DHT22;38763;53.096;6.062;2022-12-07T04:59:26;2.50;99.90
52899;DHT22;38763;53.096;6.062;2022-12-07T05:01:51;2.40;99.90
52899;DHT22;38763;53.096;6.062;2022-12-07T05:04:17;2.50;99.90
52899;DHT22;38763;53.096;6.062;2022-12-07T05:06:43;2.50;99.90
52899;DHT22;38763;53.096;6.062;2022-12-07T05:09:09;2.40;99.90
52899;DHT22;38763;53.096;6.062;2022-12-07T05:11:35;2.40;99.90
52899;DHT22;38763;53.096;6.062;2022-12-07T05:16:31;2.40;99.90
52899;DHT22;38763;53.096;6.062;2022-12-07T05:18:57;2.40;99.90
52899;DHT22;38763;53.096;6.062;2022-12-07T05:21:22;2.40;99.90
52899;DHT22;38763;53.096;6.062;2022-12-07T05:23:48;2.60;99.90
52899;DHT22;38763;53.096;6.062;2022-12-07T05:26:14;2.50;99.90
52899;DHT22;38763;53.096;6.062;2022-12-07T05:28:39;2.80;99.90
52899;DHT22;38763;53.096;6.062;2022-12-07T05:31:05;2.80;99.90
52899;DHT22;38763;53.096;6.062;2022-12-07T05:33:31;2.70;99.90
52899;DHT22;38763;53.096;6.062;2022-12-07T05:35:56;2.80;99.90
52899;DHT22;38763;53.096;6.062;2022-12-07T05:38:22;2.90;99.90
52899;DHT22;38763;53.096;6.062;2022-12-07T05:40:48;2.90;99.90
52899;DHT22;38763;53.096;6.062;2022-12-07T05:43:13;3.10;99.90
52899;DHT22;38763;53.096;6.062;2022-12-07T05:45:39;3.00;99.90
52899;DHT22;38763;53.096;6.062;2022-12-07T05:48:05;3.20;99.90
52899;DHT22;38763;53.096;6.062;2022-12-07T05:50:31;3.20;99.90
52899;DHT22;38763;53.096;6.062;2022-12-07T05:52:56;3.20;99.90
52899;DHT22;38763;53.096;6.062;2022-12-07T05:55:22;3.30;99.90
52899;DHT22;38763;53.096;6.062;2022-12-07T05:57:47;3.10;99.90
52899;DHT22;38763;53.096;6.062;2022-12-07T06:00:48;3.10;99.90
52899;DHT22;38763;53.096;6.062;2022-12-07T06:03:14;3.00;99.90
52899;DHT22;38763;53.096;6.062;2022-12-07T06:05:39;2.90;99.90
52899;DHT22;38763;53.096;6.062;2022-12-07T06:08:05;3.00;99.90
52899;DHT22;38763;53.096;6.062;2022-12-07T06:10:30;2.80;99.90
52899;DHT22;38763;53.096;6.062;2022-12-07T06:12:56;2.80;99.90
52899;DHT22;38763;53.096;6.062;2022-12-07T06:15:22;2.90;99.90
52899;DHT22;38763;53.096;6.062;2022-12-07T06:17:48;2.90;99.90
52899;DHT22;38763;53.096;6.062;2022-12-07T06:20:14;3.10;99.90
52899;DHT22;38763;53.096;6.062;2022-12-07T06:22:40;2.90;99.90
52899;DHT22;38763;53.096;6.062;2022-12-07T06:25:05;3.10;99.90
52899;DHT22;38763;53.096;6.062;2022-12-07T06:27:32;3.20;99.90
52899;DHT22;38763;53.096;6.062;2022-12-07T06:29:58;3.40;99.90
52899;DHT22;38763;53.096;6.062;2022-12-07T06:32:24;3.40;99.90
52899;DHT22;38763;53.096;6.062;2022-12-07T06:34:49;3.30;99.90
52899;DHT22;38763;53.096;6.062;2022-12-07T06:37:15;3.20;99.90
52899;DHT22;38763;53.096;6.062;2022-12-07T06:39:41;3.20;99.90
52899;DHT22;38763;53.096;6.062;2022-12-07T06:42:06;3.00;99.90
52899;DHT22;38763;53.096;6.062;2022-12-07T06:44:32;2.90;99.90
52899;DHT22;38763;53.096;6.062;2022-12-07T06:46:58;2.70;99.90
52899;DHT22;38763;53.096;6.062;2022-12-07T06:49:23;2.70;99.90
52899;DHT22;38763;53.096;6.062;2022-12-07T06:51:49;2.60;99.90
52899;DHT22;38763;53.096;6.062;2022-12-07T06:54:15;2.60;99.90
52899;DHT22;38763;53.096;6.062;2022-12-07T06:56:41;2.50;99.90
52899;DHT22;38763;53.096;6.062;2022-12-07T06:59:07;2.60;99.90
52899;DHT22;38763;53.096;6.062;2022-12-07T07:01:34;2.50;99.90
52899;DHT22;38763;53.096;6.062;2022-12-07T07:04:00;2.60;99.90
52899;DHT22;38763;53.096;6.062;2022-12-07T07:06:26;2.70;99.90
52899;DHT22;38763;53.096;6.062;2022-12-07T07:08:51;2.80;99.90
52899;DHT22;38763;53.096;6.062;2022-12-07T07:11:17;2.80;99.90
52899;DHT22;38763;53.096;6.062;2022-12-07T07:13:44;2.90;99.90
52899;DHT22;38763;53.096;6.062;2022-12-07T07:16:09;2.90;99.90
52899;DHT22;38763;53.096;6.062;2022-12-07T07:18:36;3.10;99.90
52899;DHT22;38763;53.096;6.062;2022-12-07T07:21:02;3.10;99.90
52899;DHT22;38763;53.096;6.062;2022-12-07T07:23:28;3.20;99.90
52899;DHT22;38763;53.096;6.062;2022-12-07T07:25:54;3.20;99.90
52899;DHT22;38763;53.096;6.062;2022-12-07T07:28:20;3.20;99.90
52899;DHT22;38763;53.096;6.062;2022-12-07T07:30:46;3.00;99.90
52899;DHT22;38763;53.096;6.062;2022-12-07T07:33:11;3.00;99.90
52899;DHT22;38763;53.096;6.062;2022-12-07T07:35:38;2.90;99.90
52899;DHT22;38763;53.096;6.062;2022-12-07T07:38:05;2.80;99.90
52899;DHT22;38763;53.096;6.062;2022-12-07T07:40:30;2.80;99.90
52899;DHT22;38763;53.096;6.062;2022-12-07T07:42:57;2.70;99.90
52899;DHT22;38763;53.096;6.062;2022-12-07T07:45:24;2.60;99.90
52899;DHT22;38763;53.096;6.062;2022-12-07T07:47:50;2.50;99.90
52899;DHT22;38763;53.096;6.062;2022-12-07T07:50:16;2.40;99.90
52899;DHT22;38763;53.096;6.062;2022-12-07T07:52:42;2.60;99.90
52899;DHT22;38763;53.096;6.062;2022-12-07T07:55:08;2.50;99.90
52899;DHT22;38763;53.096;6.062;2022-12-07T07:57:39;2.60;99.90
52899;DHT22;38763;53.096;6.062;2022-12-07T08:00:10;2.60;99.90
52899;DHT22;38763;53.096;6.062;2022-12-07T08:02:36;2.60;99.90
52899;DHT22;38763;53.096;6.062;2022-12-07T08:05:02;2.80;99.90
52899;DHT22;38763;53.096;6.062;2022-12-07T08:07:28;2.70;99.90
52899;DHT22;38763;53.096;6.062;2022-12-07T08:09:54;2.80;99.90
52899;DHT22;38763;53.096;6.062;2022-12-07T08:12:20;2.80;99.90
52899;DHT22;38763;53.096;6.062;2022-12-07T08:14:45;2.60;99.90
52899;DHT22;38763;53.096;6.062;2022-12-07T08:17:11;2.50;99.90
52899;DHT22;38763;53.096;6.062;2022-12-07T08:19:37;2.60;99.90
52899;DHT22;38763;53.096;6.062;2022-12-07T08:22:03;2.60;99.90
52899;DHT22;38763;53.096;6.062;2022-12-07T08:24:29;2.50;99.90
52899;DHT22;38763;53.096;6.062;2022-12-07T08:26:54;2.20;99.90
52899;DHT22;38763;53.096;6.062;2022-12-07T08:29:20;2.20;99.90
52899;DHT22;38763;53.096;6.062;2022-12-07T08:31:46;2.30;99.90
52899;DHT22;38763;53.096;6.062;2022-12-07T08:34:12;2.20;99.90
52899;DHT22;38763;53.096;6.062;2022-12-07T08:36:39;2.30;99.90
52899;DHT22;38763;53.096;6.062;2022-12-07T08:39:04;2.40;99.90
52899;DHT22;38763;53.096;6.062;2022-12-07T08:41:31;2.50;99.90
52899;DHT22;38763;53.096;6.062;2022-12-07T08:43:56;2.50;99.90
52899;DHT22;38763;53.096;6.062;2022-12-07T08:46:42;2.70;99.90
52899;DHT22;38763;53.096;6.062;2022-12-07T08:49:23;2.60;99.90
52899;DHT22;38763;53.096;6.062;2022-12-07T08:51:49;2.80;99.90
52899;DHT22;38763;53.096;6.062;2022-12-07T08:54:16;2.80;99.90
52899;DHT22;38763;53.096;6.062;2022-12-07T08:56:43;2.90;99.90
52899;DHT22;38763;53.096;6.062;2022-12-07T08:59:09;3.00;99.90
52899;DHT22;38763;53.096;6.062;2022-12-07T09:01:35;3.00;99.90
52899;DHT22;38763;53.096;6.062;2022-12-07T09:04:01;3.10;99.90
52899;DHT22;38763;53.096;6.062;2022-12-07T09:06:27;3.00;99.90
52899;DHT22;38763;53.096;6.062;2022-12-07T09:08:56;3.30;99.90
52899;DHT22;38763;53.096;6.062;2022-12-07T09:11:23;3.20;99.90
52899;DHT22;38763;53.096;6.062;2022-12-07T09:13:49;3.20;99.90
52899;DHT22;38763;53.096;6.062;2022-12-07T09:16:14;3.20;99.90
52899;DHT22;38763;53.096;6.062;2022-12-07T09:18:40;3.10;99.90
52899;DHT22;38763;53.096;6.062;2022-12-07T09:21:05;3.20;99.90
52899;DHT22;38763;53.096;6.062;2022-12-07T09:23:31;3.20;99.90
52899;DHT22;38763;53.096;6.062;2022-12-07T09:26:04;3.20;99.90
52899;DHT22;38763;53.096;6.062;2022-12-07T09:28:32;3.10;99.90
52899;DHT22;38763;53.096;6.062;2022-12-07T09:30:58;3.00;99.90
52899;DHT22;38763;53.096;6.062;2022-12-07T09:33:24;2.90;99.90
52899;DHT22;38763;53.096;6.062;2022-12-07T09:35:51;3.10;99.90
52899;DHT22;38763;53.096;6.062;2022-12-07T09:38:18;2.90;99.90
52899;DHT22;38763;53.096;6.062;2022-12-07T09:40:44;2.90;99.90
52899;DHT22;38763;53.096;6.062;2022-12-07T09:43:15;2.90;99.90
52899;DHT22;38763;53.096;6.062;2022-12-07T09:45:42;3.20;99.90
52899;DHT22;38763;53.096;6.062;2022-12-07T09:48:17;3.20;99.90
52899;DHT22;38763;53.096;6.062;2022-12-07T09:50:45;3.50;99.90
52899;DHT22;38763;53.096;6.062;2022-12-07T09:53:23;3.80;99.90
52899;DHT22;38763;53.096;6.062;2022-12-07T09:55:50;3.80;99.90
52899;DHT22;38763;53.096;6.062;2022-12-07T09:58:26;4.00;99.90
52899;DHT22;38763;53.096;6.062;2022-12-07T10:00:59;4.00;99.90
52899;DHT22;38763;53.096;6.062;2022-12-07T10:03:27;4.10;99.90
52899;DHT22;38763;53.096;6.062;2022-12-07T10:05:54;4.10;99.90
52899;DHT22;38763;53.096;6.062;2022-12-07T10:08:20;4.10;99.90
52899;DHT22;38763;53.096;6.062;2022-12-07T10:10:50;4.00;99.90
52899;DHT22;38763;53.096;6.062;2022-12-07T10:14:09;4.00;99.90
52899;DHT22;38763;53.096;6.062;2022-12-07T10:16:35;4.00;99.90
52899;DHT22;38763;53.096;6.062;2022-12-07T10:22:00;4.10;99.90
52899;DHT22;38763;53.096;6.062;2022-12-07T10:24:26;4.10;99.90
52899;DHT22;38763;53.096;6.062;2022-12-07T10:26:52;4.10;99.90
52899;DHT22;38763;53.096;6.062;2022-12-07T10:29:23;4.20;99.90
52899;DHT22;38763;53.096;6.062;2022-12-07T10:32:06;4.10;99.90
52899;DHT22;38763;53.096;6.062;2022-12-07T10:34:50;4.30;99.90
52899;DHT22;38763;53.096;6.062;2022-12-07T10:37:19;4.20;99.90
52899;DHT22;38763;53.096;6.062;2022-12-07T10:44:44;4.50;99.90
52899;DHT22;38763;53.096;6.062;2022-12-07T10:47:29;4.80;99.90
52899;DHT22;38763;53.096;6.062;2022-12-07T11:12:28;4.80;99.90
52899;DHT22;38763;53.096;6.062;2022-12-07T11:15:10;4.70;99.90
52899;DHT22;38763;53.096;6.062;2022-12-07T11:34:02;4.60;99.90
52899;DHT22;38763;53.096;6.062;2022-12-07T11:36:52;4.50;99.90
52899;DHT22;38763;53.096;6.062;2022-12-07T11:41:49;4.50;99.90
52899;DHT22;38763;53.096;6.062;2022-12-07T11:44:32;4.60;99.90
52899;DHT22;38763;53.096;6.062;2022-12-07T11:47:13;4.80;99.90
52899;DHT22;38763;53.096;6.062;2022-12-07T11:55:06;5.10;99.90
52899;DHT22;38763;53.096;6.062;2022-12-07T11:57:43;5.10;99.90
52899;DHT22;38763;53.096;6.062;2022-12-07T12:00:16;4.80;99.90
52899;DHT22;38763;53.096;6.062;2022-12-07T12:05:37;4.50;99.90
52899;DHT22;38763;53.096;6.062;2022-12-07T12:08:19;4.30;99.90
52899;DHT22;38763;53.096;6.062;2022-12-07T12:13:59;3.70;99.90
52899;DHT22;38763;53.096;6.062;2022-12-07T12:21:58;3.50;99.90
52899;DHT22;38763;53.096;6.062;2022-12-07T12:24:30;3.60;99.90
52899;DHT22;38763;53.096;6.062;2022-12-07T12:27:15;3.60;99.90
52899;DHT22;38763;53.096;6.062;2022-12-07T12:29:43;3.70;99.90
52899;DHT22;38763;53.096;6.062;2022-12-07T12:42:52;3.90;99.90
52899;DHT22;38763;53.096;6.062;2022-12-07T12:45:24;3.90;99.90
52899;DHT22;38763;53.096;6.062;2022-12-07T12:48:29;4.00;99.90
52899;DHT22;38763;53.096;6.062;2022-12-07T12:51:59;4.10;99.90
52899;DHT22;38763;53.096;6.062;2022-12-07T12:59:31;4.30;99.90
52899;DHT22;38763;53.096;6.062;2022-12-07T13:04:39;4.30;99.90
52899;DHT22;38763;53.096;6.062;2022-12-07T13:10:39;4.20;99.90
52899;DHT22;38763;53.096;6.062;2022-12-07T13:15:54;4.40;99.90
52899;DHT22;38763;53.096;6.062;2022-12-07T13:23:39;4.40;99.90
52899;DHT22;38763;53.096;6.062;2022-12-07T13:26:36;4.30;99.90
52899;DHT22;38763;53.096;6.062;2022-12-07T13:29:16;4.30;99.90
52899;DHT22;38763;53.096;6.062;2022-12-07T13:31:55;4.40;99.90
52899;DHT22;38763;53.096;6.062;2022-12-07T13:34:34;4.40;99.90
52899;DHT22;38763;53.096;6.062;2022-12-07T13:37:12;4.30;99.90
52899;DHT22;38763;53.096;6.062;2022-12-07T13:39:49;4.40;99.90
52899;DHT22;38763;53.096;6.062;2022-12-07T13:42:34;4.40;99.90
52899;DHT22;38763;53.096;6.062;2022-12-07T13:45:20;4.40;99.90
52899;DHT22;38763;53.096;6.062;2022-12-07T13:47:51;4.30;99.90
52899;DHT22;38763;53.096;6.062;2022-12-07T13:50:31;4.40;99.90
52899;DHT22;38763;53.096;6.062;2022-12-07T13:52:59;4.30;99.90
52899;DHT22;38763;53.096;6.062;2022-12-07T13:55:26;4.30;99.90
52899;DHT22;38763;53.096;6.062;2022-12-07T13:57:53;4.30;99.90
52899;DHT22;38763;53.096;6.062;2022-12-07T14:00:24;4.20;99.90
52899;DHT22;38763;53.096;6.062;2022-12-07T14:02:58;4.20;99.90
52899;DHT22;38763;53.096;6.062;2022-12-07T14:05:31;4.20;99.90
52899;DHT22;38763;53.096;6.062;2022-12-07T14:08:01;4.20;99.90
52899;DHT22;38763;53.096;6.062;2022-12-07T14:10:37;4.20;99.90
52899;DHT22;38763;53.096;6.062;2022-12-07T14:13:39;4.20;99.90
52899;DHT22;38763;53.096;6.062;2022-12-07T14:16:22;4.20;99.90
52899;DHT22;38763;53.096;6.062;2022-12-07T14:18:49;4.10;99.90
52899;DHT22;38763;53.096;6.062;2022-12-07T14:21:26;4.10;99.90
52899;DHT22;38763;53.096;6.062;2022-12-07T14:26:40;4.00;99.90
52899;DHT22;38763;53.096;6.062;2022-12-07T14:29:41;4.00;99.90
52899;DHT22;38763;53.096;6.062;2022-12-07T14:32:21;3.90;99.90
52899;DHT22;38763;53.096;6.062;2022-12-07T14:34:58;3.90;99.90
52899;DHT22;38763;53.096;6.062;2022-12-07T14:37:25;3.80;99.90
52899;DHT22;38763;53.096;6.062;2022-12-07T14:39:51;3.90;99.90
52899;DHT22;38763;53.096;6.062;2022-12-07T14:42:17;3.90;99.90
52899;DHT22;38763;53.096;6.062;2022-12-07T14:44:43;3.80;99.90
52899;DHT22;38763;53.096;6.062;2022-12-07T14:47:10;3.80;99.90
52899;DHT22;38763;53.096;6.062;2022-12-07T14:49:36;3.80;99.90
52899;DHT22;38763;53.096;6.062;2022-12-07T14:52:02;3.80;99.90
52899;DHT22;38763;53.096;6.062;2022-12-07T14:54:31;3.70;99.90
52899;DHT22;38763;53.096;6.062;2022-12-07T14:56:57;3.80;99.90
52899;DHT22;38763;53.096;6.062;2022-12-07T14:59:23;3.70;99.90
52899;DHT22;38763;53.096;6.062;2022-12-07T15:01:49;3.70;99.90
52899;DHT22;38763;53.096;6.062;2022-12-07T15:04:15;3.70;99.90
52899;DHT22;38763;53.096;6.062;2022-12-07T15:06:40;3.70;99.90
52899;DHT22;38763;53.096;6.062;2022-12-07T15:09:10;3.80;99.90
52899;DHT22;38763;53.096;6.062;2022-12-07T15:11:36;3.70;99.90
52899;DHT22;38763;53.096;6.062;2022-12-07T15:14:02;3.70;99.90
52899;DHT22;38763;53.096;6.062;2022-12-07T15:16:34;3.80;99.90
52899;DHT22;38763;53.096;6.062;2022-12-07T15:19:00;3.70;99.90
52899;DHT22;38763;53.096;6.062;2022-12-07T15:21:26;3.60;99.90
52899;DHT22;38763;53.096;6.062;2022-12-07T15:23:51;3.70;99.90
52899;DHT22;38763;53.096;6.062;2022-12-07T15:26:17;3.70;99.90
52899;DHT22;38763;53.096;6.062;2022-12-07T15:28:43;3.70;99.90
52899;DHT22;38763;53.096;6.062;2022-12-07T15:31:13;3.70;99.90
52899;DHT22;38763;53.096;6.062;2022-12-07T15:33:38;3.70;99.90
52899;DHT22;38763;53.096;6.062;2022-12-07T15:36:04;3.60;99.90
52899;DHT22;38763;53.096;6.062;2022-12-07T15:38:30;3.50;99.90
52899;DHT22;38763;53.096;6.062;2022-12-07T15:40:56;3.40;99.90
52899;DHT22;38763;53.096;6.062;2022-12-07T15:43:22;3.40;99.90
52899;DHT22;38763;53.096;6.062;2022-12-07T15:46:06;3.40;99.90
52899;DHT22;38763;53.096;6.062;2022-12-07T15:48:32;3.40;99.90
52899;DHT22;38763;53.096;6.062;2022-12-07T15:51:08;3.30;99.90
52899;DHT22;38763;53.096;6.062;2022-12-07T15:53:34;3.40;99.90
52899;DHT22;38763;53.096;6.062;2022-12-07T15:56:00;3.30;99.90
52899;DHT22;38763;53.096;6.062;2022-12-07T15:58:26;3.30;99.90
52899;DHT22;38763;53.096;6.062;2022-12-07T16:00:52;3.40;99.90
52899;DHT22;38763;53.096;6.062;2022-12-07T16:03:17;3.30;99.90
52899;DHT22;38763;53.096;6.062;2022-12-07T16:05:49;3.30;99.90
52899;DHT22;38763;53.096;6.062;2022-12-07T16:08:15;3.20;99.90
52899;DHT22;38763;53.096;6.062;2022-12-07T16:10:40;3.30;99.90
52899;DHT22;38763;53.096;6.062;2022-12-07T16:13:09;3.20;99.90
52899;DHT22;38763;53.096;6.062;2022-12-07T16:15:38;3.10;99.90
52899;DHT22;38763;53.096;6.062;2022-12-07T16:18:04;3.10;99.90
52899;DHT22;38763;53.096;6.062;2022-12-07T16:20:30;3.10;99.90
52899;DHT22;38763;53.096;6.062;2022-12-07T16:22:55;3.00;99.90
52899;DHT22;38763;53.096;6.062;2022-12-07T16:25:21;3.00;99.90
52899;DHT22;38763;53.096;6.062;2022-12-07T16:27:46;3.00;99.90
52899;DHT22;38763;53.096;6.062;2022-12-07T16:30:13;2.90;99.90
52899;DHT22;38763;53.096;6.062;2022-12-07T16:32:39;3.00;99.90
52899;DHT22;38763;53.096;6.062;2022-12-07T16:35:05;2.80;99.90
52899;DHT22;38763;53.096;6.062;2022-12-07T16:37:31;2.90;99.90
52899;DHT22;38763;53.096;6.062;2022-12-07T16:39:57;2.70;99.90
52899;DHT22;38763;53.096;6.062;2022-12-07T16:42:22;2.80;99.90
52899;DHT22;38763;53.096;6.062;2022-12-07T16:44:48;2.80;99.90
52899;DHT22;38763;53.096;6.062;2022-12-07T16:47:14;2.70;99.90
52899;DHT22;38763;53.096;6.062;2022-12-07T16:49:39;2.80;99.90
52899;DHT22;38763;53.096;6.062;2022-12-07T16:52:05;2.80;99.90
52899;DHT22;38763;53.096;6.062;2022-12-07T16:54:30;2.90;99.90
52899;DHT22;38763;53.096;6.062;2022-12-07T16:56:58;2.90;99.90
52899;DHT22;38763;53.096;6.062;2022-12-07T16:59:24;3.00;99.90
52899;DHT22;38763;53.096;6.062;2022-12-07T17:01:49;3.00;99.90
52899;DHT22;38763;53.096;6.062;2022-12-07T17:04:15;2.90;99.90
52899;DHT22;38763;53.096;6.062;2022-12-07T17:06:41;3.00;99.90
52899;DHT22;38763;53.096;6.062;2022-12-07T17:09:06;2.90;99.90
52899;DHT22;38763;53.096;6.062;2022-12-07T17:11:35;3.00;99.90
52899;DHT22;38763;53.096;6.062;2022-12-07T17:14:01;2.90;99.90
52899;DHT22;38763;53.096;6.062;2022-12-07T17:16:45;3.00;99.90
52899;DHT22;38763;53.096;6.062;2022-12-07T17:19:14;3.00;99.90
52899;DHT22;38763;53.096;6.062;2022-12-07T17:21:41;2.90;99.90
52899;DHT22;38763;53.096;6.062;2022-12-07T17:24:09;2.90;99.90
52899;DHT22;38763;53.096;6.062;2022-12-07T17:26:35;2.80;99.90
52899;DHT22;38763;53.096;6.062;2022-12-07T17:29:03;2.90;99.90
52899;DHT22;38763;53.096;6.062;2022-12-07T17:31:29;2.80;99.90
52899;DHT22;38763;53.096;6.062;2022-12-07T17:33:54;2.90;99.90
52899;DHT22;38763;53.096;6.062;2022-12-07T17:36:27;2.90;99.90
52899;DHT22;38763;53.096;6.062;2022-12-07T17:38:54;2.80;99.90
52899;DHT22;38763;53.096;6.062;2022-12-07T17:41:22;2.80;99.90
52899;DHT22;38763;53.096;6.062;2022-12-07T17:44:09;2.80;99.90
52899;DHT22;38763;53.096;6.062;2022-12-07T17:46:36;2.80;99.90
52899;DHT22;38763;53.096;6.062;2022-12-07T17:49:02;2.80;99.90
52899;DHT22;38763;53.096;6.062;2022-12-07T17:51:28;2.80;99.90
52899;DHT22;38763;53.096;6.062;2022-12-07T17:54:12;2.90;99.90
52899;DHT22;38763;53.096;6.062;2022-12-07T17:56:38;2.80;99.90
52899;DHT22;38763;53.096;6.062;2022-12-07T17:59:05;2.80;99.90